Time;durP1;ratioP1;P1;durP2;ratioP2;P2;SDS_P1;SDS_P2;PMS_P1;PMS_P2;Temp;Humidity;BMP_temperature;BMP_pressure;BME280_temperature;BME280_humidity;BME280_pressure;Samples;Min_cycle;Max_cycle;Signal;HPM_P1;HPM_P2
2022/05/15 00:00:59;;;;;;;2.60;1.87;;;;;;;16.45;50.82;100165.16;4338111;32;33843;-89
2022/05/15 00:03:40;;;;;;;4.15;1.92;;;;;;;16.36;51.16;100163.06;4325369;33;33311;-89
2022/05/15 00:06:07;;;;;;;3.92;2.00;;;;;;;16.28;51.30;100158.19;4324650;33;33398;-89
2022/05/15 00:08:38;;;;;;;2.85;1.83;;;;;;;16.25;51.25;100169.06;4321349;33;32541;-89
2022/05/15 00:11:09;;;;;;;4.43;2.15;;;;;;;16.28;51.22;100168.84;4321452;33;33320;-89
2022/05/15 00:13:38;;;;;;;4.55;2.28;;;;;;;16.30;51.04;100166.09;4302802;33;32284;-89
2022/05/15 00:16:11;;;;;;;6.75;1.98;;;;;;;16.26;51.25;100167.25;4319364;33;33501;-89
2022/05/15 00:18:38;;;;;;;4.55;2.00;;;;;;;16.08;51.45;100175.38;4330558;33;33120;-89
2022/05/15 00:21:07;;;;;;;2.35;1.60;;;;;;;16.25;50.91;100168.19;4310307;33;32928;-89
2022/05/15 00:23:36;;;;;;;5.55;1.90;;;;;;;15.83;52.21;100173.34;4321601;33;32937;-89
2022/05/15 00:26:03;;;;;;;3.28;1.80;;;;;;;15.62;53.04;100161.28;4334739;33;33570;-89
2022/05/15 00:28:32;;;;;;;2.65;2.22;;;;;;;15.64;52.92;100161.22;4333808;32;33031;-89
2022/05/15 00:31:03;;;;;;;2.75;1.62;;;;;;;15.90;51.71;100157.84;4316057;33;178182;-90
2022/05/15 00:33:31;;;;;;;3.05;1.70;;;;;;;15.93;51.71;100164.81;4313650;33;32790;-89
2022/05/15 00:35:58;;;;;;;3.17;2.08;;;;;;;16.01;51.41;100155.41;4325023;33;33470;-89
2022/05/15 00:38:27;;;;;;;5.07;1.75;;;;;;;16.01;51.88;100159.88;4313254;33;32895;-89
2022/05/15 00:40:56;;;;;;;2.78;1.60;;;;;;;15.85;52.29;100160.78;4339552;33;32838;-89
2022/05/15 00:43:59;;;;;;;2.17;1.77;;;;;;;16.09;51.74;100163.81;4331661;33;32853;-92
2022/05/15 00:47:03;;;;;;;2.90;1.80;;;;;;;16.11;51.71;100161.91;4302927;33;32755;-91
2022/05/15 00:49:43;;;;;;;5.40;2.03;;;;;;;15.85;52.69;100159.94;4347961;32;33775;-91
2022/05/15 00:52:51;;;;;;;4.90;1.90;;;;;;;15.86;52.57;100156.34;4351896;32;35548;-91
2022/05/15 00:55:45;;;;;;;2.87;2.35;;;;;;;15.97;52.35;100159.22;4348872;32;33607;-91
2022/05/15 00:58:42;;;;;;;5.72;2.15;;;;;;;15.94;52.35;100151.41;4341266;32;33644;-92
2022/05/15 01:01:33;;;;;;;2.08;1.87;;;;;;;15.88;52.91;100155.28;4342808;32;33124;-90
2022/05/15 01:04:16;;;;;;;6.62;2.08;;;;;;;16.00;52.51;100147.50;4359384;32;33205;-92
2022/05/15 01:07:01;;;;;;;3.03;1.70;;;;;;;15.97;52.61;100148.56;4336745;32;32392;-89
2022/05/15 01:09:35;;;;;;;2.15;1.80;;;;;;;15.65;53.76;100141.63;4337545;32;32672;-90
2022/05/15 01:12:18;;;;;;;4.53;2.22;;;;;;;15.71;53.32;100138.59;4374335;32;33181;-91
2022/05/15 01:15:09;;;;;;;11.38;3.87;;;;;;;15.79;53.05;100133.69;4352749;32;33871;-92
2022/05/15 01:18:22;;;;;;;5.75;2.72;;;;;;;15.79;53.02;100141.66;4352598;32;32185;-89
2022/05/15 01:21:20;;;;;;;7.28;2.33;;;;;;;15.75;53.29;100138.31;4365714;32;33742;-92
2022/05/15 01:24:25;;;;;;;;;;;;;;;15.71;53.38;100144.78;4343387;32;33127;-92
2022/05/15 01:27:21;;;;;;;4.20;1.58;;;;;;;15.61;54.23;100144.44;4345782;32;31195;-92
2022/05/15 01:30:10;;;;;;;3.70;2.30;;;;;;;15.60;53.86;100144.53;4344328;32;32830;-92
2022/05/15 01:32:57;;;;;;;3.12;1.83;;;;;;;15.54;53.89;100145.75;4355903;32;33630;-91
2022/05/15 01:35:38;;;;;;;7.32;2.58;;;;;;;15.58;53.73;100146.44;4371016;32;32590;-92
2022/05/15 01:38:35;;;;;;;2.17;1.77;;;;;;;15.64;53.83;100146.09;4364282;32;33876;-91
2022/05/15 01:41:33;;;;;;;2.90;1.62;;;;;;;15.58;54.09;100149.97;4350006;32;32345;-92
2022/05/15 01:44:25;;;;;;;2.45;1.40;;;;;;;15.45;54.69;100151.63;4335401;32;33853;-92
2022/05/15 01:47:26;;;;;;;1.83;1.60;;;;;;;15.47;54.27;100146.19;4342700;32;32870;-91
2022/05/15 01:50:17;;;;;;;3.25;1.92;;;;;;;15.57;53.99;100150.91;4356734;32;33044;-92
2022/05/15 01:53:00;;;;;;;4.82;2.30;;;;;;;15.33;54.72;100153.19;4348068;32;32904;-92
2022/05/15 01:55:52;;;;;;;2.05;1.52;;;;;;;15.44;54.54;100160.56;4366229;32;32628;-91
2022/05/15 01:58:52;;;;;;;5.55;2.05;;;;;;;15.13;55.13;100156.13;4360653;32;33909;-89
2022/05/15 02:02:01;;;;;;;2.22;1.70;;;;;;;14.93;55.66;100153.75;4363871;32;33139;-90
2022/05/15 02:05:03;;;;;;;2.90;1.87;;;;;;;15.22;55.20;100154.75;4368578;32;35822;-92
2022/05/15 02:08:04;;;;;;;3.47;1.80;;;;;;;15.20;55.17;100156.66;4328587;33;33472;-92
2022/05/15 02:10:57;;;;;;;2.35;1.83;;;;;;;15.04;55.85;100162.81;4340102;33;34413;-92
2022/05/15 02:13:51;;;;;;;4.82;2.17;;;;;;;15.18;55.40;100159.37;4368691;32;33508;-89
2022/05/15 02:16:21;;;;;;;2.58;1.75;;;;;;;15.26;55.23;100156.28;4385250;32;33287;-89
2022/05/15 02:18:51;;;;;;;3.30;1.60;;;;;;;15.10;55.58;100151.84;4369376;32;34633;-89
2022/05/15 02:21:20;;;;;;;3.03;1.60;;;;;;;15.22;55.51;100154.75;4377764;32;32354;-89
2022/05/15 02:23:49;;;;;;;1.83;1.73;;;;;;;15.23;55.08;100162.63;4370196;32;33075;-90
2022/05/15 02:26:17;;;;;;;3.67;1.80;;;;;;;15.06;55.67;100155.63;4366597;32;32673;-91
2022/05/15 02:28:48;;;;;;;4.03;1.55;;;;;;;15.07;55.54;100157.34;4371813;32;32714;-91
2022/05/15 02:31:45;;;;;;;3.05;1.65;;;;;;;15.44;54.78;100165.87;4371735;32;33539;-91
2022/05/15 02:34:13;;;;;;;2.25;1.85;;;;;;;15.28;55.19;100157.03;4357779;32;34836;-90
2022/05/15 02:36:42;;;;;;;1.80;1.42;;;;;;;15.34;55.01;100154.06;4360050;32;33846;-90
2022/05/15 02:39:10;;;;;;;8.15;2.08;;;;;;;15.28;55.29;100157.91;4369559;32;34243;-89
2022/05/15 02:41:39;;;;;;;5.80;1.83;;;;;;;15.24;55.67;100158.16;4358212;32;33191;-90
2022/05/15 02:44:27;;;;;;;3.58;1.42;;;;;;;15.14;56.04;100165.81;4372165;32;33996;-91
2022/05/15 02:46:57;;;;;;;2.78;1.60;;;;;;;15.12;55.82;100165.06;4356840;32;32364;-91
2022/05/15 02:52:32;;;;;;;5.25;1.92;;;;;;;15.43;54.99;100172.16;4361991;32;33130;-91
2022/05/15 02:55:02;;;;;;;3.33;1.90;;;;;;;15.20;55.93;100177.94;4382728;32;34055;-90
2022/05/15 02:57:29;;;;;;;3.33;2.33;;;;;;;15.18;56.02;100172.69;4379395;32;33359;-90
2022/05/15 02:59:58;;;;;;;4.40;2.83;;;;;;;14.97;56.34;100182.72;4371046;32;33878;-90
2022/05/15 03:02:26;;;;;;;3.45;2.28;;;;;;;14.94;56.39;100179.37;4365445;32;33733;-90
2022/05/15 03:04:54;;;;;;;3.58;2.33;;;;;;;15.00;56.58;100184.34;4369548;32;34774;-90
2022/05/15 03:07:22;;;;;;;3.72;1.73;;;;;;;15.10;55.99;100175.78;4353115;32;34115;-90
2022/05/15 03:09:51;;;;;;;5.12;1.77;;;;;;;15.08;55.97;100174.16;4382393;32;33800;-93
2022/05/15 03:12:51;;;;;;;2.90;1.80;;;;;;;15.02;56.27;100180.66;4357568;32;32677;-93
2022/05/15 03:15:53;;;;;;;7.18;2.30;;;;;;;14.93;56.89;100181.19;4322199;33;32822;-89
2022/05/15 03:18:23;;;;;;;6.28;2.65;;;;;;;14.86;57.24;100193.13;4332605;33;32506;-89
2022/05/15 03:20:50;;;;;;;2.70;2.15;;;;;;;15.00;57.06;100181.69;4344838;33;33060;-89
2022/05/15 03:23:19;;;;;;;3.80;2.03;;;;;;;14.72;57.68;100193.88;4344568;33;32980;-89
2022/05/15 03:25:48;;;;;;;3.05;1.62;;;;;;;14.68;57.75;100196.78;4347078;32;32960;-90
2022/05/15 03:28:17;;;;;;;2.45;2.22;;;;;;;14.71;57.87;100191.28;4327263;33;32878;-90
2022/05/15 03:30:50;;;;;;;3.83;2.00;;;;;;;14.67;57.53;100197.69;4321201;33;32713;-90
2022/05/15 03:33:17;;;;;;;3.60;2.15;;;;;;;14.80;57.24;100193.44;4320605;33;33467;-90
2022/05/15 03:35:47;;;;;;;2.15;1.87;;;;;;;14.66;57.79;100195.97;4335830;33;34775;-90
2022/05/15 03:38:19;;;;;;;4.28;2.40;;;;;;;14.65;57.70;100194.28;4356437;32;33002;-90
2022/05/15 03:40:49;;;;;;;2.42;1.87;;;;;;;14.65;57.65;100197.78;4346472;32;32863;-90
2022/05/15 03:43:18;;;;;;;3.90;2.12;;;;;;;14.66;57.48;100194.19;4320457;33;32409;-90
2022/05/15 03:45:46;;;;;;;2.85;1.77;;;;;;;14.63;57.74;100204.13;4341027;33;33552;-90
2022/05/15 03:48:15;;;;;;;7.97;2.92;;;;;;;14.65;57.84;100197.78;4344002;33;32639;-89
2022/05/15 03:50:43;;;;;;;3.70;1.90;;;;;;;14.78;57.83;100203.31;4329343;33;32515;-90
2022/05/15 03:53:11;;;;;;;3.15;1.90;;;;;;;14.85;57.73;100204.66;4334166;33;33103;-91
2022/05/15 03:56:03;;;;;;;6.68;2.75;;;;;;;14.96;57.72;100202.28;4342115;32;33844;-91
2022/05/15 04:02:57;;;;;;;3.87;2.55;;;;;;;15.02;58.15;100214.38;4334881;33;35581;-92
2022/05/15 04:05:40;;;;;;;3.22;1.75;;;;;;;14.73;58.39;100216.00;4342662;33;32849;-92
2022/05/15 04:08:23;;;;;;;4.35;2.25;;;;;;;14.91;57.91;100216.75;4373925;32;33009;-92
2022/05/15 04:11:05;;;;;;;3.60;2.37;;;;;;;14.84;58.61;100217.09;4351884;32;33528;-89
2022/05/15 04:13:34;;;;;;;2.33;2.08;;;;;;;15.16;57.76;100216.28;4349408;32;32785;-89
2022/05/15 04:16:01;;;;;;;10.38;2.65;;;;;;;15.33;57.23;100221.50;4368518;32;32870;-89
2022/05/15 04:18:29;;;;;;;8.75;3.15;;;;;;;15.46;57.21;100221.66;4378487;32;33747;-93
2022/05/15 04:21:24;;;;;;;3.70;2.53;;;;;;;15.54;57.28;100219.44;4360910;32;35558;-90
2022/05/15 04:24:15;;;;;;;5.32;2.17;;;;;;;15.71;57.05;100223.78;4345809;32;32564;-91
2022/05/15 04:27:06;;;;;;;6.07;2.90;;;;;;;15.82;56.57;100230.22;4351704;32;33651;-91
2022/05/15 04:29:53;;;;;;;5.40;2.33;;;;;;;15.94;57.14;100225.97;4359709;32;34146;-90
2022/05/15 04:32:25;;;;;;;8.60;2.50;;;;;;;16.36;55.65;100219.00;4351733;32;33190;-90
2022/05/15 04:34:56;;;;;;;3.83;2.58;;;;;;;16.42;55.59;100223.09;4339368;32;32093;-90
2022/05/15 04:37:24;;;;;;;6.93;2.75;;;;;;;16.41;55.90;100221.41;4352118;32;33008;-90
2022/05/15 04:39:54;;;;;;;7.55;2.50;;;;;;;16.63;55.51;100227.13;4349334;32;34294;-90
2022/05/15 04:42:25;;;;;;;3.83;2.37;;;;;;;16.79;55.50;100227.06;4337320;33;32922;-90
2022/05/15 04:45:22;;;;;;;4.40;2.67;;;;;;;16.69;56.34;100236.56;4336709;33;32533;-89
2022/05/15 04:47:51;;;;;;;5.22;2.65;;;;;;;17.18;53.57;100230.81;4337085;33;33367;-91
2022/05/15 04:50:37;;;;;;;5.90;3.15;;;;;;;16.97;55.18;100233.06;4342899;32;32929;-86
2022/05/15 04:53:06;;;;;;;2.78;2.20;;;;;;;17.06;55.07;100230.66;4340724;32;34719;-86
2022/05/15 04:55:33;;;;;;;7.80;2.80;;;;;;;17.09;54.41;100235.81;4367697;32;34123;-86
2022/05/15 04:58:02;;;;;;;3.35;2.55;;;;;;;17.28;53.65;100239.94;4345370;32;33957;-85
2022/05/15 05:00:30;;;;;;;7.20;2.37;;;;;;;17.46;54.59;100240.56;4382991;32;32783;-85
2022/05/15 05:02:59;;;;;;;2.72;1.95;;;;;;;17.62;53.60;100239.47;4369584;32;34789;-84
2022/05/15 05:05:27;;;;;;;3.78;2.20;;;;;;;18.01;52.40;100224.44;4351699;32;32692;-84
2022/05/15 05:07:57;;;;;;;3.00;2.20;;;;;;;18.20;51.86;100236.56;4372734;32;33014;-85
2022/05/15 05:10:26;;;;;;;2.47;2.00;;;;;;;18.20;53.25;100239.22;4372358;32;33886;-84
2022/05/15 05:12:54;;;;;;;3.58;1.98;;;;;;;18.44;52.39;100232.19;4368659;32;33197;-84
2022/05/15 05:15:24;;;;;;;2.03;1.67;;;;;;;18.64;50.80;100236.13;4370062;32;33526;-84
2022/05/15 05:17:54;;;;;;;2.78;1.80;;;;;;;18.82;50.82;100232.19;4355345;32;33299;-84
2022/05/15 05:20:25;;;;;;;2.00;1.67;;;;;;;19.05;50.37;100235.06;4366438;32;33514;-85
2022/05/15 05:22:54;;;;;;;4.75;2.15;;;;;;;19.23;49.35;100230.16;4356060;32;32791;-85
2022/05/15 05:25:22;;;;;;;7.87;1.95;;;;;;;19.33;48.98;100228.56;4368507;32;33551;-86
2022/05/15 05:27:50;;;;;;;2.95;1.70;;;;;;;19.43;48.06;100233.13;4380193;32;34306;-86
2022/05/15 05:30:22;;;;;;;3.03;1.80;;;;;;;19.46;48.91;100232.03;4360745;32;33487;-86
2022/05/15 05:32:52;;;;;;;3.90;2.05;;;;;;;19.54;49.15;100235.00;4361004;32;32303;-87
2022/05/15 05:35:28;;;;;;;3.10;2.28;;;;;;;19.73;48.48;100233.66;4358487;32;31773;-87
2022/05/15 05:37:55;;;;;;;8.98;2.50;;;;;;;19.91;47.89;100237.66;4378708;32;33997;-87
2022/05/15 05:40:25;;;;;;;8.40;1.90;;;;;;;19.93;48.91;100241.91;4371187;32;33675;-87
2022/05/15 05:42:52;;;;;;;3.28;1.77;;;;;;;20.12;48.02;100241.34;4371362;32;32902;-84
2022/05/15 05:45:22;;;;;;;3.33;2.05;;;;;;;20.23;46.16;100234.34;4369259;32;33851;-84
2022/05/15 05:47:55;;;;;;;3.90;1.67;;;;;;;20.04;47.11;100241.09;4368475;32;34213;-84
2022/05/15 05:50:27;;;;;;;5.15;1.55;;;;;;;20.43;45.86;100233.66;4378286;32;34609;-84
2022/05/15 05:52:57;;;;;;;2.78;1.67;;;;;;;20.68;45.57;100233.44;4360976;32;33673;-87
2022/05/15 05:55:29;;;;;;;1.80;1.65;;;;;;;20.90;44.49;100234.44;4362063;32;32330;-87
2022/05/15 05:57:57;;;;;;;4.07;1.45;;;;;;;21.02;42.38;100241.50;4374706;32;34592;-87
2022/05/15 06:05:58;;;;;;;4.15;1.75;;;;;;;21.61;43.60;100233.13;4366463;32;33896;-86
2022/05/15 06:08:34;;;;;;;2.72;1.50;;;;;;;21.79;43.39;100227.19;4380126;32;34875;-87
2022/05/15 06:11:02;;;;;;;1.92;1.67;;;;;;;21.89;41.42;100231.69;4375830;32;33329;-86
2022/05/15 06:13:32;;;;;;;2.47;1.55;;;;;;;21.95;42.79;100241.06;4376015;32;32688;-87
2022/05/15 06:16:01;;;;;;;7.35;2.83;;;;;;;22.14;42.01;100246.63;4364401;32;35078;-85
2022/05/15 06:18:31;;;;;;;4.10;1.77;;;;;;;22.22;41.78;100232.53;4367948;32;32753;-86
2022/05/15 06:21:03;;;;;;;3.45;1.65;;;;;;;22.45;41.53;100234.06;4357142;32;31868;-85
2022/05/15 06:23:32;;;;;;;2.50;1.40;;;;;;;22.59;41.47;100238.28;4368784;32;32568;-87
2022/05/15 06:26:00;;;;;;;4.62;1.52;;;;;;;22.83;40.37;100242.50;4358654;32;32411;-86
2022/05/15 06:28:29;;;;;;;2.78;1.67;;;;;;;22.88;41.51;100240.25;4369648;32;34144;-86
2022/05/15 06:30:58;;;;;;;4.05;1.50;;;;;;;23.11;39.24;100236.41;4370317;32;30829;-86
2022/05/15 06:36:04;;;;;;;3.42;1.23;;;;;;;23.12;35.34;100232.75;4377769;32;34027;-86
2022/05/15 06:38:40;;;;;;;5.10;1.60;;;;;;;23.64;34.59;100230.75;4349014;32;33566;-86
2022/05/15 06:41:10;;;;;;;3.45;1.05;;;;;;;23.47;32.38;100234.09;4349078;32;32717;-86
2022/05/15 06:43:40;;;;;;;5.90;1.23;;;;;;;23.81;31.09;100231.03;4364757;32;32796;-86
2022/05/15 06:46:10;;;;;;;2.67;1.35;;;;;;;24.33;30.49;100224.31;4361677;32;33791;-87
2022/05/15 06:48:39;;;;;;;3.47;0.95;;;;;;;24.45;32.11;100230.41;4360566;32;34367;-87
2022/05/15 06:51:08;;;;;;;5.30;1.52;;;;;;;24.47;32.35;100228.44;4376802;32;33817;-87
2022/05/15 06:53:37;;;;;;;1.52;1.02;;;;;;;24.70;32.92;100228.97;4366246;32;32463;-86
2022/05/15 06:59:03;;;;;;;1.42;1.12;;;;;;;25.00;31.61;100227.81;4384156;32;33168;-90
2022/05/15 07:02:03;;;;;;;4.43;1.48;;;;;;;25.12;28.57;100229.38;4386693;32;33085;-89
2022/05/15 07:04:34;;;;;;;1.80;1.27;;;;;;;24.96;27.94;100229.12;4358876;32;32514;-89
2022/05/15 07:07:03;;;;;;;3.37;1.20;;;;;;;24.83;30.69;100220.50;4358945;32;34127;-89
2022/05/15 07:12:10;;;;;;;1.65;0.85;;;;;;;25.14;31.02;100229.22;4367896;32;33942;-87
2022/05/15 07:14:41;;;;;;;1.92;1.12;;;;;;;25.17;32.03;100228.94;4363870;32;33666;-88
2022/05/15 07:17:17;;;;;;;3.90;1.62;;;;;;;25.59;28.60;100223.81;4364478;32;34008;-88
2022/05/15 07:19:53;;;;;;;2.15;1.20;;;;;;;25.59;29.33;100225.66;4366717;32;33220;-87
2022/05/15 07:22:26;;;;;;;1.95;1.05;;;;;;;24.92;30.03;100227.72;4352309;32;33304;-88
2022/05/15 07:25:01;;;;;;;2.15;1.15;;;;;;;25.64;28.20;100224.22;4359368;32;33420;-88
2022/05/15 07:27:33;;;;;;;1.05;0.90;;;;;;;26.16;30.27;100218.97;4363593;32;32594;-87
2022/05/15 07:30:03;;;;;;;0.85;0.62;;;;;;;26.00;29.98;100226.94;4375440;32;33235;-88
2022/05/15 07:32:38;;;;;;;2.35;1.10;;;;;;;26.24;29.29;100218.16;4368488;32;34356;-88
2022/05/15 07:35:08;;;;;;;3.67;1.25;;;;;;;26.27;29.88;100218.69;4365136;32;33557;-88
2022/05/15 07:37:39;;;;;;;1.83;1.20;;;;;;;26.59;29.45;100214.56;4350342;32;33963;-87
2022/05/15 07:40:11;;;;;;;5.00;1.37;;;;;;;26.65;29.55;100216.59;4360892;32;34222;-88
2022/05/15 07:42:44;;;;;;;5.32;1.10;;;;;;;26.84;28.04;100206.56;4355662;32;33496;-88
2022/05/15 07:45:13;;;;;;;3.33;1.10;;;;;;;26.83;29.31;100213.84;4357715;32;32567;-87
2022/05/15 07:50:27;;;;;;;4.03;1.10;;;;;;;26.67;31.33;100214.56;4365270;32;34827;-87
2022/05/15 07:52:59;;;;;;;3.22;1.10;;;;;;;26.93;28.56;100216.41;4366624;32;33780;-88
2022/05/15 07:55:28;;;;;;;5.15;1.70;;;;;;;26.89;27.29;100217.75;4368526;32;33941;-88
2022/05/15 07:58:01;;;;;;;2.90;1.05;;;;;;;26.75;27.89;100222.75;4363378;32;34122;-87
2022/05/15 08:00:29;;;;;;;3.12;1.35;;;;;;;26.60;27.62;100213.53;4365151;32;32824;-88
2022/05/15 08:03:09;;;;;;;4.32;1.00;;;;;;;26.28;28.11;100212.28;4353019;32;33648;-88
2022/05/15 08:08:34;;;;;;;7.53;1.15;;;;;;;26.65;28.85;100213.91;4363053;32;34686;-88
2022/05/15 08:11:07;;;;;;;3.47;1.20;;;;;;;27.22;28.00;100203.34;4362968;32;33741;-88
2022/05/15 08:13:37;;;;;;;4.05;1.08;;;;;;;27.15;26.04;100210.41;4365337;32;34165;-88
2022/05/15 08:16:07;;;;;;;1.95;0.80;;;;;;;27.47;26.55;100206.13;4361440;32;32684;-88
2022/05/15 08:24:17;;;;;;;3.00;1.87;;;;;;;27.75;25.07;100199.41;4354255;32;33715;-88
2022/05/15 08:26:47;;;;;;;2.05;1.12;;;;;;;28.00;25.84;100202.13;4360637;32;32345;-88
2022/05/15 08:29:18;;;;;;;1.48;1.12;;;;;;;27.70;29.30;100207.19;4351162;32;35046;-88
2022/05/15 08:31:50;;;;;;;1.58;1.08;;;;;;;27.84;25.09;100197.56;4337363;32;33154;-87
2022/05/15 08:34:20;;;;;;;1.33;0.80;;;;;;;28.18;23.66;100202.81;4353886;32;33141;-88
2022/05/15 08:36:57;;;;;;;1.37;0.90;;;;;;;28.51;23.40;100200.91;4360200;32;33636;-88
2022/05/15 08:39:31;;;;;;;3.60;1.10;;;;;;;28.51;24.18;100205.50;4355268;32;32985;-88
2022/05/15 08:42:20;;;;;;;2.45;1.25;;;;;;;28.17;24.70;100206.53;4362441;32;33535;-89
2022/05/15 08:44:58;;;;;;;3.87;1.23;;;;;;;28.06;25.14;100212.31;4373294;32;32935;-89
2022/05/15 08:47:37;;;;;;;2.20;1.23;;;;;;;28.04;24.34;100203.50;4383341;32;32390;-90
2022/05/15 08:50:15;;;;;;;1.27;0.60;;;;;;;28.36;24.44;100207.25;4373777;32;32997;-90
2022/05/15 08:53:02;;;;;;;3.78;1.45;;;;;;;28.38;25.54;100211.47;4376923;32;33662;-89
2022/05/15 08:55:45;;;;;;;1.70;1.02;;;;;;;28.92;22.51;100205.41;4353954;32;33352;-90
2022/05/15 09:00:56;;;;;;;6.25;1.17;;;;;;;28.75;22.94;100202.72;4368120;32;33305;-90
2022/05/15 09:03:31;;;;;;;3.10;0.85;;;;;;;28.89;23.37;100205.72;4366161;32;33585;-90
2022/05/15 09:06:54;;;;;;;1.50;0.98;;;;;;;29.27;21.62;100202.19;4362159;32;33972;-90
2022/05/15 09:09:43;;;;;;;4.75;1.08;;;;;;;29.36;22.35;100197.56;4375122;32;33562;-90
2022/05/15 09:12:23;;;;;;;2.55;1.00;;;;;;;29.32;21.97;100199.78;4387233;32;33449;-89
2022/05/15 09:15:01;;;;;;;4.62;1.35;;;;;;;29.28;22.79;100203.88;4380727;32;33626;-89
2022/05/15 09:17:41;;;;;;;3.25;0.93;;;;;;;29.41;21.75;100202.47;4368060;32;33060;-89
2022/05/15 09:20:15;;;;;;;3.22;0.88;;;;;;;29.04;22.90;100201.28;4365374;32;32278;-90
2022/05/15 09:23:01;;;;;;;7.82;1.77;;;;;;;29.19;22.88;100195.94;4365727;32;32140;-90
2022/05/15 09:25:35;;;;;;;2.53;1.00;;;;;;;29.12;23.29;100193.09;4365012;32;33201;-89
2022/05/15 09:28:10;;;;;;;2.65;0.98;;;;;;;28.70;22.77;100194.25;4342491;32;33186;-89
2022/05/15 09:30:45;;;;;;;1.75;0.93;;;;;;;28.60;23.63;100193.59;4357789;32;33734;-93
2022/05/15 09:33:35;;;;;;;6.25;1.17;;;;;;;28.86;24.10;100195.19;4326730;33;33223;-92
2022/05/15 09:36:35;;;;;;;5.65;1.85;;;;;;;28.93;23.66;100198.94;4334128;33;34743;-92
2022/05/15 09:39:42;;;;;;;1.37;0.90;;;;;;;29.15;24.11;100198.19;4305158;33;33771;-88
2022/05/15 09:45:07;;;;;;;1.67;1.05;;;;;;;28.95;24.32;100191.47;4314962;33;32427;-88
2022/05/15 09:47:38;;;;;;;2.45;1.30;;;;;;;29.11;22.62;100191.41;4326684;33;33445;-88
2022/05/15 09:50:53;;;;;;;4.93;1.10;;;;;;;29.28;22.46;100192.16;4330318;33;34016;-88
2022/05/15 09:53:40;;;;;;;1.77;1.48;;;;;;;29.52;23.85;100189.28;4323677;33;32479;-89
2022/05/15 09:56:24;;;;;;;1.20;1.10;;;;;;;29.40;23.35;100182.56;4338040;33;32575;-88
2022/05/15 09:59:01;;;;;;;3.03;1.00;;;;;;;29.30;22.82;100190.13;4316961;33;34131;-88
2022/05/15 10:01:35;;;;;;;3.20;1.15;;;;;;;30.09;22.27;100180.69;4318497;33;32320;-89
2022/05/15 10:04:38;;;;;;;4.22;1.02;;;;;;;29.99;22.05;100184.69;4329303;33;33570;-88
2022/05/15 10:07:27;;;;;;;3.92;2.12;;;;;;;30.11;21.23;100185.97;4296426;33;33185;-89
2022/05/15 10:10:17;;;;;;;5.03;1.08;;;;;;;30.26;21.90;100181.44;4309954;33;33921;-89
2022/05/15 10:13:06;;;;;;;2.92;1.10;;;;;;;30.27;21.25;100180.38;4317487;33;32530;-89
2022/05/15 10:15:46;;;;;;;4.72;0.98;;;;;;;29.80;21.67;100176.00;4318279;33;32723;-89
2022/05/15 10:18:26;;;;;;;2.97;1.10;;;;;;;30.05;22.36;100173.06;4315096;33;33447;-88
2022/05/15 10:20:57;;;;;;;3.03;1.55;;;;;;;30.05;22.61;100183.97;4338069;33;33734;-89
2022/05/15 10:23:44;;;;;;;6.17;1.40;;;;;;;30.37;21.57;100171.09;4330235;33;34198;-89
2022/05/15 10:26:21;;;;;;;1.95;1.30;;;;;;;30.18;22.27;100172.47;4341257;33;32890;-89
2022/05/15 10:29:13;;;;;;;1.20;1.00;;;;;;;30.23;21.60;100175.50;4316842;33;33034;-89
2022/05/15 10:31:49;;;;;;;2.33;1.02;;;;;;;30.21;22.61;100167.53;4319180;33;33730;-89
2022/05/15 10:34:29;;;;;;;4.47;1.62;;;;;;;30.31;23.19;100168.09;4330114;33;34572;-89
2022/05/15 10:37:08;;;;;;;1.12;0.98;;;;;;;30.14;21.54;100171.16;4317097;33;32211;-89
2022/05/15 10:40:15;;;;;;;1.95;1.08;;;;;;;30.15;20.36;100159.22;4322903;33;32609;-89
2022/05/15 10:42:57;;;;;;;2.67;1.45;;;;;;;30.27;22.04;100158.59;4327273;33;33244;-89
2022/05/15 10:45:41;;;;;;;3.30;0.90;;;;;;;29.75;20.97;100159.37;4324461;33;33579;-88
2022/05/15 10:48:45;;;;;;;2.10;1.25;;;;;;;29.64;21.33;100170.69;4326753;33;32466;-88
2022/05/15 10:51:28;;;;;;;3.65;1.40;;;;;;;29.67;22.26;100164.88;4305281;33;33309;-88
2022/05/15 10:57:45;;;;;;;5.95;1.48;;;;;;;30.00;20.82;100148.28;4296913;33;33985;-88
2022/05/15 11:00:35;;;;;;;1.37;1.00;;;;;;;30.14;22.47;100139.31;4315200;33;32592;-87
2022/05/15 11:03:23;;;;;;;2.45;1.10;;;;;;;29.87;21.44;100153.53;4302912;33;33951;-88
2022/05/15 11:06:08;;;;;;;2.17;0.70;;;;;;;29.75;21.67;100153.94;4315224;33;32808;-88
2022/05/15 11:08:55;;;;;;;2.28;1.27;;;;;;;29.90;22.07;100137.66;4298798;33;32952;-88
2022/05/15 11:11:50;;;;;;;1.62;0.90;;;;;;;30.48;20.44;100146.09;4318312;33;32350;-87
2022/05/15 11:14:57;;;;;;;2.37;0.98;;;;;;;30.52;20.40;100137.38;4318171;33;33929;-88
2022/05/15 11:17:29;;;;;;;3.55;0.90;;;;;;;30.85;21.10;100140.56;4315980;33;34058;-88
2022/05/15 11:20:05;;;;;;;3.17;0.98;;;;;;;30.65;19.19;100127.69;4278430;33;33589;-88
2022/05/15 11:23:04;;;;;;;5.22;1.25;;;;;;;30.48;19.12;100130.62;4298545;33;34364;-88
2022/05/15 11:25:46;;;;;;;1.43;0.80;;;;;;;30.19;18.50;100131.44;4317777;33;34090;-88
2022/05/15 11:28:21;;;;;;;3.15;1.08;;;;;;;30.06;20.07;100131.22;4316340;33;33470;-88
2022/05/15 11:31:04;;;;;;;2.33;1.15;;;;;;;30.03;20.51;100123.41;4297364;33;34021;-87
2022/05/15 11:33:48;;;;;;;2.25;1.60;;;;;;;29.91;21.92;100117.59;4293982;33;32822;-88
2022/05/15 11:36:21;;;;;;;3.03;1.00;;;;;;;29.91;24.70;100120.31;4329397;33;33028;-88
2022/05/15 11:38:49;;;;;;;;;;;;;;;30.15;20.84;100118.37;4328665;33;32673;-88
2022/05/15 11:41:36;;;;;;;8.93;1.30;;;;;;;29.79;20.76;100110.88;4340514;33;33335;-88
2022/05/15 11:44:21;;;;;;;2.65;1.20;;;;;;;29.37;22.38;100124.94;4323144;33;32927;-89
2022/05/15 11:47:03;;;;;;;3.70;1.83;;;;;;;29.22;23.94;100116.72;4344146;33;33467;-88
2022/05/15 11:49:39;;;;;;;1.83;0.95;;;;;;;29.56;22.77;100119.06;4344012;33;32879;-89
2022/05/15 11:52:10;;;;;;;5.43;1.25;;;;;;;29.38;24.50;100115.75;4331744;33;32615;-88
2022/05/15 11:54:49;;;;;;;3.03;1.00;;;;;;;29.59;22.39;100115.97;4331739;33;33681;-89
2022/05/15 11:57:37;;;;;;;2.60;1.48;;;;;;;29.79;21.04;100109.00;4356018;32;33417;-88
2022/05/15 12:00:11;;;;;;;;;;;;;;;29.70;22.67;100103.81;4331789;33;32815;-88
2022/05/15 12:02:56;;;;;;;1.65;0.70;;;;;;;29.89;21.14;100099.72;4331696;33;33321;-88
2022/05/15 12:05:39;;;;;;;1.48;0.80;;;;;;;30.01;21.88;100103.69;4317962;33;32489;-88
2022/05/15 12:08:17;;;;;;;1.00;0.80;;;;;;;30.25;21.27;100095.31;4343502;33;34439;-88
2022/05/15 12:10:46;;;;;;;1.92;1.00;;;;;;;30.34;21.58;100096.91;4319162;33;33435;-88
2022/05/15 12:13:40;;;;;;;2.35;1.00;;;;;;;30.66;21.32;100097.50;4336835;33;34197;-88
2022/05/15 12:16:34;;;;;;;3.28;0.98;;;;;;;30.19;21.33;100085.13;4331372;33;34335;-88
2022/05/15 12:19:24;;;;;;;2.62;1.02;;;;;;;30.55;21.41;100087.94;4343529;33;33143;-88
2022/05/15 12:21:57;;;;;;;6.62;1.83;;;;;;;30.26;21.79;100097.00;4343464;33;33850;-88
2022/05/15 12:24:32;;;;;;;3.35;0.88;;;;;;;30.37;22.32;100089.38;4331547;33;34023;-88
2022/05/15 12:27:07;;;;;;;1.05;0.90;;;;;;;30.23;21.56;100089.19;4343290;33;33160;-89
2022/05/15 12:29:48;;;;;;;3.20;1.00;;;;;;;30.42;21.46;100087.75;4332547;33;33340;-88
2022/05/15 12:32:28;;;;;;;1.75;1.08;;;;;;;30.09;21.10;100081.81;4341600;32;33345;-88
2022/05/15 12:35:12;;;;;;;1.10;0.80;;;;;;;30.39;20.93;100077.28;4341555;33;33927;-85
2022/05/15 12:37:55;;;;;;;1.40;1.05;;;;;;;29.97;23.81;100077.87;4339008;33;34682;-85
2022/05/15 12:40:34;;;;;;;3.78;1.40;;;;;;;30.76;22.09;100073.56;4340296;33;33636;-84
2022/05/15 12:43:41;;;;;;;2.12;1.10;;;;;;;30.54;21.52;100082.69;4341768;33;33024;-84
2022/05/15 12:46:28;;;;;;;4.18;0.95;;;;;;;30.94;21.76;100069.56;4283013;33;32833;-84
2022/05/15 12:48:58;;;;;;;2.60;1.05;;;;;;;30.89;20.98;100069.31;4310866;33;33514;-84
2022/05/15 12:51:37;;;;;;;3.47;1.27;;;;;;;30.83;21.30;100063.59;4337393;33;33736;-84
2022/05/15 12:57:08;;;;;;;3.95;1.12;;;;;;;30.40;22.08;100056.31;4331647;33;34417;-85
2022/05/15 12:59:46;;;;;;;4.60;1.02;;;;;;;30.16;21.51;100055.56;4337718;33;32566;-85
2022/05/15 13:02:37;;;;;;;1.42;0.57;;;;;;;30.05;21.43;100059.59;4313029;33;33380;-85